createdAt,value
2018-09-24T00:01:26.854Z,95866.00
2018-09-24T00:03:57.069Z,95870.00
2018-09-24T00:06:27.319Z,95881.00
2018-09-24T00:08:57.499Z,95897.00
2018-09-24T00:11:27.698Z,95910.00
2018-09-24T00:14:00.955Z,95908.00
2018-09-24T00:16:31.181Z,95917.00
2018-09-24T00:19:07.987Z,95905.00
2018-09-24T00:21:38.171Z,95885.00
2018-09-24T00:24:08.399Z,95892.00
2018-09-24T00:26:38.584Z,95887.00
2018-09-24T00:29:08.855Z,95896.00
2018-09-24T00:31:45.620Z,95892.00
2018-09-24T00:34:15.838Z,95884.00
2018-09-24T00:36:46.032Z,95895.00
2018-09-24T00:39:16.323Z,95890.00
2018-09-24T00:41:46.558Z,95900.00
2018-09-24T00:44:16.786Z,95888.00
2018-09-24T00:46:47.025Z,95889.00
2018-09-24T00:49:17.221Z,95905.00
2018-09-24T00:51:47.391Z,95901.00
2018-09-24T00:54:17.619Z,95886.00
2018-09-24T00:56:47.794Z,95887.00
2018-09-24T00:59:17.986Z,95881.00
2018-09-24T01:01:48.148Z,95890.00
2018-09-24T01:04:21.173Z,95872.00
2018-09-24T01:06:51.421Z,95890.00
2018-09-24T01:09:21.660Z,95907.00
2018-09-24T01:11:51.879Z,95908.00
2018-09-24T01:14:28.634Z,95893.00
2018-09-24T01:16:58.885Z,95874.00
2018-09-24T01:19:29.091Z,95865.00
2018-09-24T01:21:59.287Z,95842.00
2018-09-24T01:24:29.460Z,95826.00
2018-09-24T01:26:59.655Z,95845.00
2018-09-24T01:29:29.850Z,95863.00
2018-09-24T01:32:00.058Z,95871.00
2018-09-24T01:34:30.239Z,95913.00
2018-09-24T01:37:00.438Z,95916.00
2018-09-24T01:39:30.651Z,95902.00
2018-09-24T01:42:00.840Z,95903.00
2018-09-24T01:44:31.133Z,95880.00
2018-09-24T01:47:01.301Z,95888.00
2018-09-24T01:49:31.569Z,95867.00
2018-09-24T01:52:04.717Z,95851.00
2018-09-24T01:54:34.971Z,95888.00
2018-09-24T01:57:06.603Z,95880.00
2018-09-24T01:59:36.798Z,95909.00
2018-09-24T02:02:07.011Z,95928.00
2018-09-24T02:04:37.210Z,95922.00
2018-09-24T02:07:07.396Z,95895.00
2018-09-24T02:09:37.590Z,95917.00
2018-09-24T02:12:14.389Z,95897.00
2018-09-24T02:14:44.605Z,95906.00
2018-09-24T02:17:23.955Z,95893.00
2018-09-24T02:19:54.168Z,95867.00
2018-09-24T02:22:28.250Z,95882.00
2018-09-24T02:24:59.571Z,95860.00
2018-09-24T02:27:32.590Z,95854.00
2018-09-24T02:30:02.797Z,95878.00
2018-09-24T02:32:39.601Z,95911.00
2018-09-24T02:35:09.900Z,95932.00
2018-09-24T02:37:40.149Z,95936.00
2018-09-24T02:40:21.557Z,95936.00
2018-09-24T02:42:51.927Z,95961.00
2018-09-24T02:45:22.151Z,95973.00
2018-09-24T02:47:52.331Z,95972.00
2018-09-24T02:50:27.913Z,95987.00
2018-09-24T02:52:58.130Z,95976.00
2018-09-24T02:55:28.295Z,95970.00
2018-09-24T02:57:58.482Z,95978.00
2018-09-24T03:00:28.697Z,95974.00
2018-09-24T03:02:58.879Z,95987.00
2018-09-24T03:05:29.079Z,95974.00
2018-09-24T03:07:59.416Z,95953.00
2018-09-24T03:10:29.598Z,95938.00
2018-09-24T03:12:59.782Z,95903.00
2018-09-24T03:15:36.075Z,95877.00
2018-09-24T03:18:06.878Z,95891.00
2018-09-24T03:20:45.293Z,95903.00
2018-09-24T03:23:15.496Z,95932.00
2018-09-24T03:25:45.685Z,95980.00
2018-09-24T03:28:15.869Z,96024.00
2018-09-24T03:30:46.023Z,96060.00
2018-09-24T03:33:16.242Z,96071.00
2018-09-24T03:35:49.481Z,96057.00
2018-09-24T03:38:19.675Z,96047.00
2018-09-24T03:40:49.879Z,96051.00
2018-09-24T03:43:20.100Z,96049.00
2018-09-24T03:45:50.276Z,96051.00
2018-09-24T03:48:20.458Z,96066.00
2018-09-24T03:50:50.700Z,96087.00
2018-09-24T03:53:20.883Z,96104.00
2018-09-24T03:55:51.077Z,96114.00
2018-09-24T03:58:21.264Z,96129.00
2018-09-24T04:00:52.010Z,96139.00
2018-09-24T04:03:22.196Z,96152.00
2018-09-24T04:05:57.672Z,96175.00
2018-09-24T04:08:33.039Z,96195.00
2018-09-24T04:11:08.511Z,96190.00
2018-09-24T04:13:43.875Z,96200.00
2018-09-24T04:16:19.291Z,96206.00
2018-09-24T04:18:55.714Z,96197.00
2018-09-24T04:21:32.058Z,96202.00
2018-09-24T04:24:07.364Z,96213.00
2018-09-24T04:26:43.836Z,96218.00
2018-09-24T04:29:19.217Z,96214.00
2018-09-24T04:31:54.743Z,96221.00
2018-09-24T04:34:30.663Z,96219.00
2018-09-24T04:37:05.925Z,96221.00
2018-09-24T04:39:48.158Z,96235.00
2018-09-24T04:42:23.399Z,96248.00
2018-09-24T04:44:58.648Z,96257.00
2018-09-24T04:47:33.983Z,96259.00
2018-09-24T04:50:09.303Z,96260.00
2018-09-24T04:52:44.799Z,96280.00
2018-09-24T04:55:20.430Z,96287.00
2018-09-24T04:57:55.885Z,96291.00
2018-09-24T05:00:31.330Z,96290.00
2018-09-24T05:03:06.651Z,96307.00
2018-09-24T05:05:42.042Z,96300.00
2018-09-24T05:08:17.375Z,96308.00
2018-09-24T05:10:52.647Z,96312.00
2018-09-24T05:13:27.897Z,96310.00
2018-09-24T05:16:03.406Z,96301.00
2018-09-24T05:18:38.823Z,96304.00
2018-09-24T05:21:14.214Z,96326.00
2018-09-24T05:23:49.570Z,96335.00
2018-09-24T05:26:24.887Z,96334.00
2018-09-24T05:29:00.130Z,96351.00
2018-09-24T05:31:35.398Z,96351.00
2018-09-24T05:34:10.675Z,96367.00
2018-09-24T05:36:45.942Z,96358.00
2018-09-24T05:39:21.210Z,96359.00
2018-09-24T05:41:56.911Z,96367.00
2018-09-24T05:44:32.177Z,96386.00
2018-09-24T05:47:07.706Z,96390.00
2018-09-24T05:49:42.985Z,96402.00
2018-09-24T05:52:18.365Z,96390.00
2018-09-24T05:54:53.766Z,96407.00
2018-09-24T05:57:29.317Z,96420.00
2018-09-24T06:00:04.571Z,96426.00
2018-09-24T06:02:39.877Z,96437.00
2018-09-24T06:05:21.647Z,96440.00
2018-09-24T06:07:57.009Z,96461.00
2018-09-24T06:10:32.304Z,96474.00
2018-09-24T06:13:07.540Z,96519.00
2018-09-24T06:15:43.066Z,96520.00
2018-09-24T06:18:18.427Z,96544.00
2018-09-24T06:20:53.880Z,96540.00
2018-09-24T06:23:29.393Z,96560.00
2018-09-24T06:26:04.744Z,96579.00
2018-09-24T06:28:40.281Z,96589.00
2018-09-24T06:31:16.117Z,96591.00
2018-09-24T06:33:51.429Z,96626.00
2018-09-24T06:36:26.753Z,96620.00
2018-09-24T06:39:02.231Z,96658.00
2018-09-24T06:41:37.498Z,96658.00
2018-09-24T06:44:12.828Z,96655.00
2018-09-24T06:46:48.273Z,96663.00
2018-09-24T06:49:23.693Z,96672.00
2018-09-24T06:51:59.091Z,96674.00
2018-09-24T06:54:34.349Z,96686.00
2018-09-24T06:57:09.661Z,96699.00
2018-09-24T06:59:44.989Z,96704.00
2018-09-24T07:02:20.316Z,96711.00
2018-09-24T07:04:55.633Z,96706.00
2018-09-24T07:07:30.825Z,96717.00
2018-09-24T07:10:06.015Z,96724.00
2018-09-24T07:12:41.176Z,96721.00
2018-09-24T07:15:16.487Z,96723.00
2018-09-24T07:17:51.963Z,96750.00
2018-09-24T07:20:27.101Z,96757.00
2018-09-24T07:23:02.362Z,96770.00
2018-09-24T07:25:37.683Z,96784.00
2018-09-24T07:28:13.042Z,96785.00
2018-09-24T07:30:48.268Z,96805.00
2018-09-24T07:33:23.636Z,96817.00
2018-09-24T07:35:58.884Z,96830.00
2018-09-24T07:38:34.129Z,96837.00
2018-09-24T07:41:09.524Z,96848.00
2018-09-24T07:43:44.952Z,96859.00
2018-09-24T07:46:20.385Z,96861.00
2018-09-24T07:48:55.830Z,96878.00
2018-09-24T07:51:31.041Z,96879.00
2018-09-24T07:54:06.301Z,96900.00
2018-09-24T07:56:41.567Z,96906.00
2018-09-24T07:59:16.919Z,96924.00
2018-09-24T08:01:52.338Z,96942.00
2018-09-24T08:04:27.596Z,96927.00
2018-09-24T08:07:02.883Z,96940.00
2018-09-24T08:09:38.280Z,96944.00
2018-09-24T08:12:13.569Z,96953.00
2018-09-24T08:14:48.886Z,96970.00
2018-09-24T08:17:24.200Z,96969.00
2018-09-24T08:19:59.500Z,96960.00
2018-09-24T08:22:34.857Z,96968.00
2018-09-24T08:25:10.388Z,96976.00
2018-09-24T08:27:45.678Z,96966.00
2018-09-24T08:30:20.897Z,96975.00
2018-09-24T08:32:56.133Z,96987.00
2018-09-24T08:35:31.388Z,96997.00
2018-09-24T08:38:06.866Z,97007.00
2018-09-24T08:40:42.053Z,97008.00
2018-09-24T08:43:17.211Z,97017.00
2018-09-24T08:45:52.480Z,97024.00
2018-09-24T08:48:27.840Z,97027.00
2018-09-24T08:51:03.228Z,97037.00
2018-09-24T08:53:38.523Z,97049.00
2018-09-24T08:56:13.813Z,97064.00
2018-09-24T08:58:49.188Z,97056.00
2018-09-24T09:01:24.500Z,97057.00
2018-09-24T09:03:59.781Z,97075.00
2018-09-24T09:06:35.208Z,97070.00
2018-09-24T09:09:14.923Z,97082.00
2018-09-24T09:11:50.684Z,97089.00
2018-09-24T09:14:25.914Z,97097.00
2018-09-24T09:17:01.387Z,97118.00
2018-09-24T09:19:36.665Z,97127.00
2018-09-24T09:22:12.297Z,97126.00
2018-09-24T09:24:47.504Z,97134.00
2018-09-24T09:27:22.981Z,97147.00
2018-09-24T09:29:58.477Z,97150.00
2018-09-24T09:32:33.924Z,97138.00
2018-09-24T09:35:09.293Z,97140.00
2018-09-24T09:37:44.705Z,97136.00
2018-09-24T09:40:20.055Z,97148.00
2018-09-24T09:42:55.272Z,97152.00
2018-09-24T09:45:30.633Z,97151.00
2018-09-24T09:48:07.459Z,97141.00
2018-09-24T09:50:43.688Z,97152.00
2018-09-24T09:53:18.981Z,97157.00
2018-09-24T09:55:54.299Z,97153.00
2018-09-24T09:58:29.705Z,97155.00
2018-09-24T10:01:04.941Z,97148.00
2018-09-24T10:03:40.161Z,97144.00
2018-09-24T10:06:15.312Z,97157.00
2018-09-24T10:08:50.629Z,97160.00
2018-09-24T10:11:25.940Z,97161.00
2018-09-24T10:14:01.332Z,97165.00
2018-09-24T10:16:36.696Z,97178.00
2018-09-24T10:19:12.049Z,97172.00
2018-09-24T10:21:47.465Z,97164.00
2018-09-24T10:24:22.820Z,97172.00
2018-09-24T10:26:58.253Z,97174.00
2018-09-24T10:29:33.625Z,97181.00
2018-09-24T10:32:08.852Z,97184.00
2018-09-24T10:34:44.097Z,97188.00
2018-09-24T10:37:19.440Z,97185.00
2018-09-24T10:39:54.722Z,97187.00
2018-09-24T10:42:29.960Z,97193.00
2018-09-24T10:45:05.268Z,97182.00
2018-09-24T10:47:40.516Z,97195.00
2018-09-24T10:50:15.797Z,97188.00
2018-09-24T10:52:51.170Z,97190.00
2018-09-24T10:55:26.528Z,97193.00
2018-09-24T10:58:01.993Z,97201.00
2018-09-24T11:00:37.173Z,97205.00
2018-09-24T11:03:12.609Z,97215.00
2018-09-24T11:05:47.861Z,97199.00
2018-09-24T11:08:23.133Z,97199.00
2018-09-24T11:10:58.316Z,97206.00
2018-09-24T11:13:33.768Z,97208.00
2018-09-24T11:16:09.481Z,97220.00
2018-09-24T11:18:44.492Z,97214.00
2018-09-24T11:21:19.844Z,97216.00
2018-09-24T11:23:55.311Z,97215.00
2018-09-24T11:29:06.037Z,97210.00
2018-09-24T11:31:41.344Z,97223.00
2018-09-24T11:34:16.768Z,97218.00
2018-09-24T11:36:52.191Z,97220.00
2018-09-24T11:39:27.445Z,97222.00
2018-09-24T11:42:02.934Z,97219.00
2018-09-24T11:44:38.296Z,97224.00
2018-09-24T11:47:13.599Z,97227.00
2018-09-24T11:49:49.001Z,97223.00
2018-09-24T11:52:24.477Z,97219.00
2018-09-24T11:54:59.909Z,97224.00
2018-09-24T11:57:35.327Z,97227.00
2018-09-24T12:00:10.733Z,97238.00
2018-09-24T12:02:46.052Z,97234.00
2018-09-24T12:05:21.294Z,97243.00
2018-09-24T12:07:56.552Z,97257.00
2018-09-24T12:10:31.988Z,97268.00
2018-09-24T12:13:07.485Z,97273.00
2018-09-24T12:15:42.924Z,97280.00
2018-09-24T12:18:18.325Z,97281.00
2018-09-24T12:20:53.787Z,97283.00
2018-09-24T12:23:29.113Z,97269.00
2018-09-24T12:26:04.641Z,97282.00
2018-09-24T12:28:40.097Z,97290.00
2018-09-24T12:31:15.261Z,97288.00
2018-09-24T12:33:50.613Z,97301.00
2018-09-24T12:36:26.144Z,97296.00
2018-09-24T12:39:01.472Z,97302.00
2018-09-24T12:41:36.689Z,97300.00
2018-09-24T12:44:12.226Z,97303.00
2018-09-24T12:46:47.594Z,97301.00
2018-09-24T12:49:24.208Z,97315.00
2018-09-24T12:52:01.616Z,97308.00
2018-09-24T12:54:40.167Z,97293.00
2018-09-24T12:57:16.566Z,97304.00
2018-09-24T12:59:53.222Z,97302.00
2018-09-24T13:02:29.770Z,97296.00
2018-09-24T13:05:05.519Z,97296.00
2018-09-24T13:07:41.155Z,97296.00
2018-09-24T13:10:16.850Z,97303.00
2018-09-24T13:12:52.615Z,97297.00
2018-09-24T13:15:28.175Z,97294.00
2018-09-24T13:18:03.870Z,97297.00
2018-09-24T13:20:39.575Z,97289.00
2018-09-24T13:23:15.255Z,97295.00
2018-09-24T13:25:50.876Z,97299.00
2018-09-24T13:28:26.495Z,97292.00
2018-09-24T13:31:02.163Z,97293.00
2018-09-24T13:33:38.465Z,97292.00
2018-09-24T13:36:18.964Z,97283.00
2018-09-24T13:38:54.896Z,97287.00
2018-09-24T13:41:30.480Z,97287.00
2018-09-24T13:44:06.216Z,97296.00
2018-09-24T13:46:42.814Z,97298.00
2018-09-24T13:49:18.820Z,97283.00
2018-09-24T13:51:54.316Z,97289.00
2018-09-24T13:54:30.022Z,97292.00
2018-09-24T13:57:05.846Z,97283.00
2018-09-24T13:59:41.684Z,97284.00
2018-09-24T14:02:17.439Z,97285.00
2018-09-24T14:04:52.963Z,97283.00
2018-09-24T14:07:28.908Z,97282.00
2018-09-24T14:10:04.711Z,97272.00
2018-09-24T14:12:40.308Z,97268.00
2018-09-24T14:15:15.930Z,97260.00
2018-09-24T14:17:51.506Z,97247.00
2018-09-24T14:20:27.120Z,97249.00
2018-09-24T14:23:02.746Z,97256.00
2018-09-24T14:25:38.564Z,97257.00
2018-09-24T14:28:14.421Z,97268.00
2018-09-24T14:30:50.135Z,97264.00
2018-09-24T14:33:25.758Z,97268.00
2018-09-24T14:36:01.400Z,97268.00
2018-09-24T14:38:37.125Z,97278.00
2018-09-24T14:41:13.012Z,97283.00
2018-09-24T14:43:48.691Z,97282.00
2018-09-24T14:46:24.261Z,97274.00
2018-09-24T14:49:00.005Z,97264.00
2018-09-24T14:51:35.722Z,97271.00
2018-09-24T14:54:11.257Z,97272.00
2018-09-24T14:56:47.171Z,97277.00
2018-09-24T14:59:22.899Z,97284.00
2018-09-24T15:01:58.593Z,97285.00
2018-09-24T15:04:33.897Z,97282.00
2018-09-24T15:07:09.208Z,97284.00
2018-09-24T15:09:44.476Z,97290.00
2018-09-24T15:12:19.929Z,97295.00
2018-09-24T15:14:55.348Z,97300.00
2018-09-24T15:17:30.701Z,97310.00
2018-09-24T15:20:05.973Z,97294.00
2018-09-24T15:22:41.347Z,97298.00
2018-09-24T15:25:16.608Z,97301.00
2018-09-24T15:27:51.881Z,97287.00
2018-09-24T15:30:27.217Z,97308.00
2018-09-24T15:33:02.661Z,97309.00
2018-09-24T15:35:38.026Z,97308.00
2018-09-24T15:38:13.318Z,97308.00
2018-09-24T15:40:48.841Z,97303.00
2018-09-24T15:43:24.023Z,97306.00
2018-09-24T15:45:59.274Z,97305.00
2018-09-24T15:48:34.773Z,97320.00
2018-09-24T15:51:10.056Z,97318.00
2018-09-24T15:53:45.434Z,97321.00
2018-09-24T15:56:20.820Z,97327.00
2018-09-24T15:58:56.269Z,97330.00
2018-09-24T16:01:31.576Z,97323.00
2018-09-24T16:04:06.868Z,97334.00
2018-09-24T16:06:42.284Z,97326.00
2018-09-24T16:09:17.467Z,97330.00
2018-09-24T16:11:52.782Z,97329.00
2018-09-24T16:14:28.112Z,97332.00
2018-09-24T16:17:03.636Z,97335.00
2018-09-24T16:19:39.009Z,97350.00
2018-09-24T16:22:14.437Z,97333.00
2018-09-24T16:24:49.739Z,97339.00
2018-09-24T16:27:25.028Z,97331.00
2018-09-24T16:30:00.362Z,97338.00
2018-09-24T16:32:35.704Z,97329.00
2018-09-24T16:35:11.268Z,97331.00
2018-09-24T16:37:46.521Z,97328.00
2018-09-24T16:40:21.801Z,97344.00
2018-09-24T16:42:57.281Z,97340.00
2018-09-24T16:45:32.648Z,97337.00
2018-09-24T16:48:07.925Z,97339.00
2018-09-24T16:50:43.322Z,97344.00
2018-09-24T16:53:18.553Z,97333.00
2018-09-24T16:55:53.846Z,97350.00
2018-09-24T16:58:29.204Z,97351.00
2018-09-24T17:01:04.465Z,97357.00
2018-09-24T17:03:39.801Z,97360.00
2018-09-24T17:06:15.000Z,97363.00
2018-09-24T17:08:50.457Z,97358.00
2018-09-24T17:11:25.819Z,97358.00
2018-09-24T17:14:01.073Z,97361.00
2018-09-24T17:16:36.408Z,97375.00
2018-09-24T17:19:11.941Z,97361.00
2018-09-24T17:21:47.188Z,97360.00
2018-09-24T17:24:22.402Z,97364.00
2018-09-24T17:26:57.738Z,97373.00
2018-09-24T17:29:33.039Z,97378.00
2018-09-24T17:32:08.261Z,97384.00
2018-09-24T17:34:43.633Z,97390.00
2018-09-24T17:37:18.889Z,97386.00
2018-09-24T17:39:54.078Z,97386.00
2018-09-24T17:42:29.557Z,97398.00
2018-09-24T17:45:05.261Z,97413.00
2018-09-24T17:47:40.543Z,97422.00
2018-09-24T17:50:15.861Z,97416.00
2018-09-24T17:52:51.840Z,97423.00
2018-09-24T17:55:28.443Z,97425.00
2018-09-24T17:58:03.713Z,97431.00
2018-09-24T18:00:39.160Z,97443.00
2018-09-24T18:03:14.491Z,97435.00
2018-09-24T18:05:49.891Z,97438.00
2018-09-24T18:08:25.313Z,97439.00
2018-09-24T18:11:01.396Z,97448.00
2018-09-24T18:13:37.379Z,97442.00
2018-09-24T18:16:12.862Z,97451.00
2018-09-24T18:18:48.165Z,97443.00
2018-09-24T18:21:23.913Z,97455.00
2018-09-24T18:23:59.795Z,97451.00
2018-09-24T18:26:35.221Z,97456.00
2018-09-24T18:29:11.168Z,97462.00
2018-09-24T18:31:46.426Z,97461.00
2018-09-24T18:34:21.813Z,97465.00
2018-09-24T18:36:57.221Z,97480.00
2018-09-24T18:39:32.569Z,97487.00
2018-09-24T18:42:07.916Z,97484.00
2018-09-24T18:44:43.288Z,97486.00
2018-09-24T18:47:19.158Z,97485.00
2018-09-24T18:49:55.364Z,97481.00
2018-09-24T18:52:32.996Z,97501.00
2018-09-24T18:55:11.939Z,97491.00
2018-09-24T18:57:48.215Z,97502.00
2018-09-24T19:00:25.816Z,97511.00
2018-09-24T19:03:01.800Z,97509.00
2018-09-24T19:05:37.144Z,97519.00
2018-09-24T19:08:12.713Z,97520.00
2018-09-24T19:10:47.801Z,97522.00
2018-09-24T19:13:23.073Z,97522.00
2018-09-24T19:15:58.692Z,97509.00
2018-09-24T19:18:34.097Z,97513.00
2018-09-24T19:21:09.328Z,97520.00
2018-09-24T19:23:44.584Z,97522.00
2018-09-24T19:26:19.901Z,97527.00
2018-09-24T19:28:55.193Z,97521.00
2018-09-24T19:31:30.707Z,97525.00
2018-09-24T19:34:05.972Z,97536.00
2018-09-24T19:36:41.266Z,97544.00
2018-09-24T19:39:16.461Z,97552.00
2018-09-24T19:41:51.840Z,97559.00
2018-09-24T19:44:27.124Z,97563.00
2018-09-24T19:47:02.396Z,97548.00
2018-09-24T19:49:37.845Z,97568.00
2018-09-24T19:52:13.208Z,97569.00
2018-09-24T19:54:48.616Z,97579.00
2018-09-24T19:57:24.028Z,97573.00
2018-09-24T19:59:59.481Z,97567.00
2018-09-24T20:02:34.738Z,97557.00
2018-09-24T20:05:10.203Z,97561.00
2018-09-24T20:07:45.593Z,97564.00
2018-09-24T20:10:27.782Z,97560.00
2018-09-24T20:13:03.194Z,97557.00
2018-09-24T20:15:38.621Z,97569.00
2018-09-24T20:18:13.906Z,97570.00
2018-09-24T20:20:49.360Z,97576.00
2018-09-24T20:23:24.683Z,97573.00
2018-09-24T20:26:00.228Z,97573.00
2018-09-24T20:28:35.466Z,97578.00
2018-09-24T20:31:10.837Z,97578.00
2018-09-24T20:33:46.302Z,97581.00
2018-09-24T20:36:21.865Z,97572.00
2018-09-24T20:38:57.334Z,97576.00
2018-09-24T20:41:32.581Z,97567.00
2018-09-24T20:44:07.898Z,97570.00
2018-09-24T20:46:43.528Z,97570.00
2018-09-24T20:49:18.906Z,97579.00
2018-09-24T20:51:54.732Z,97575.00
2018-09-24T20:54:30.082Z,97563.00
2018-09-24T20:57:05.464Z,97569.00
2018-09-24T20:59:40.736Z,97575.00
2018-09-24T21:02:16.000Z,97564.00
2018-09-24T21:04:51.362Z,97569.00
2018-09-24T21:07:26.772Z,97571.00
2018-09-24T21:10:02.681Z,97576.00
2018-09-24T21:12:37.999Z,97569.00
2018-09-24T21:15:13.782Z,97566.00
2018-09-24T21:17:49.469Z,97556.00
2018-09-24T21:20:24.762Z,97563.00
2018-09-24T21:23:00.245Z,97560.00
2018-09-24T21:25:35.682Z,97561.00
2018-09-24T21:28:11.504Z,97563.00
2018-09-24T21:30:46.781Z,97573.00
2018-09-24T21:33:22.424Z,97557.00
2018-09-24T21:35:57.758Z,97573.00
2018-09-24T21:38:33.112Z,97571.00
2018-09-24T21:41:08.488Z,97577.00
2018-09-24T21:43:44.413Z,97579.00
2018-09-24T21:46:19.735Z,97576.00
2018-09-24T21:48:55.053Z,97579.00
2018-09-24T21:51:30.539Z,97573.00
2018-09-24T21:54:05.726Z,97572.00
2018-09-24T21:56:40.897Z,97579.00
2018-09-24T21:59:16.202Z,97569.00
2018-09-24T22:01:51.447Z,97564.00
2018-09-24T22:04:26.729Z,97577.00
2018-09-24T22:07:01.981Z,97574.00
2018-09-24T22:12:49.507Z,97568.00
2018-09-24T22:15:31.901Z,97569.00
2018-09-24T22:18:07.528Z,97571.00
2018-09-24T22:20:46.634Z,97578.00
2018-09-24T22:23:22.265Z,97570.00
2018-09-24T22:26:12.218Z,97565.00
2018-09-24T22:29:00.878Z,97567.00
2018-09-24T22:31:40.267Z,97572.00
2018-09-24T22:34:18.771Z,97566.00
2018-09-24T22:37:23.874Z,97557.00
2018-09-24T22:43:40.178Z,97558.00
2018-09-24T22:49:00.045Z,97551.00
2018-09-24T22:51:35.338Z,97566.00
2018-09-24T22:54:10.612Z,97552.00
2018-09-24T22:56:45.869Z,97557.00
2018-09-24T22:59:21.077Z,97557.00
2018-09-24T23:05:10.686Z,97559.00
2018-09-24T23:07:46.325Z,97546.00
2018-09-24T23:10:21.630Z,97565.00
2018-09-24T23:12:56.825Z,97557.00
2018-09-24T23:15:31.961Z,97553.00
2018-09-24T23:18:07.096Z,97552.00
2018-09-24T23:20:42.256Z,97553.00
2018-09-24T23:23:17.531Z,97554.00
2018-09-24T23:25:53.313Z,97555.00
2018-09-24T23:28:28.512Z,97554.00
2018-09-24T23:31:03.829Z,97562.00
2018-09-24T23:33:39.083Z,97557.00
2018-09-24T23:36:14.213Z,97549.00
2018-09-24T23:38:49.414Z,97563.00
2018-09-24T23:41:24.823Z,97562.00
2018-09-24T23:44:01.622Z,97565.00
2018-09-24T23:46:39.828Z,97560.00
2018-09-24T23:49:22.291Z,97564.00
2018-09-24T23:52:04.974Z,97566.00
2018-09-24T23:54:40.499Z,97573.00
2018-09-24T23:57:19.433Z,97577.00
2018-09-24T23:59:54.953Z,97577.00
